Southpoint, Ohio
Current Conditions -  °F | °C
As of 1:51 PM on Friday 31 Oct 2014 (Local Time) from KHTS Reporting Station
Overcast Overcast  
Wind Chill: 43°   Ceiling: 2500
Heat Index: 46°   Visibility: 10mi
Dew Point: 38°   Wind: 6mph
Humidity: 73%   Direction: 250°WSW
Pressure: 29.9"   Gusts: NA
Location:  38.4563°N, 82.5446°W
Report Text: KHTS 311751Z 25005KT 10SM BKN025 BKN030 OVC048 08/03 A2990 RMK AO2 RAE32 SLP127 P0000 60003 T00780033 10089 20028 58023
Loading
Personal Weather Stations






























Interactive Weather Map
Tropical Storm Tracking
New forecast layout! Learn more

10-Day Weather Forecast

Advertisements
Track Severe Weather on mobile